Flag for China

Past Weather in 38°57'11"N, 121°32'56"E, China — Yesterday and Last 2 Weeks

Currently: 75 °F. Clear. (Weather station: Dalian Airport, China). See more current weather

Past Weather in 38°57'11"N, 121°32'56"E — Graph

°F

38°57'11"N, 121°32'56"E Temperature Yesterday

Maximum temperature yesterday: 81 °F (at 3:00 pm)
Minimum temperature yesterday: 73 °F (at 3:00 am)
Average temperature yesterday: 77 °F

High & Low Weather Summary for the Past Weeks

 TemperatureHumidityPressure
High93 °F (Jul 28, 11:30 am)100% (Jul 17, 1:00 am)29.98 "Hg (Jul 17, 1:00 am)
Low72 °F (Jul 17, 1:00 am)43% (Jul 27, 6:00 pm)29.33 "Hg (Jul 30, 3:30 pm)
Average80 °F78%29.73 "Hg
* Reported Jul 17 12:00 am — Aug 1 12:30 am, 38°57'11"N, 121°32'56"E. Weather by CustomWeather, © 2021

Note: Actual official high and low records may vary slightly from our data, if they occured in-between our weather recording intervals... More about our weather records

38°57'11"N, 121°32'56"E Weather History for the Previous 24 Hours

Scroll right to see more
 ConditionsComfort  
Time TempWeatherWind HumidityBarometerVisibility
12:30 am
Sun, Aug 1
75 °FClear.3 mph94%29.47 "Hg10 mi
12:00 am75 °FClear.3 mph89%29.47 "Hg10 mi
11:30 pm
Sat, Jul 31
75 °FClear.6 mph89%29.47 "Hg10 mi
11:00 pm75 °FClear.No wind89%29.47 "Hg10 mi
10:30 pm73 °FClear.1 mph89%29.47 "Hg10 mi
10:00 pm75 °FClear.No wind83%29.47 "Hg10 mi
9:30 pm77 °FClear.1 mph83%29.47 "Hg10 mi
9:00 pm79 °FClear.1 mph79%29.47 "Hg10 mi
8:30 pm79 °FClear.1 mph79%29.47 "Hg10 mi
8:00 pm79 °FClear.1 mph74%29.47 "Hg10 mi
7:30 pm79 °FClear.3 mph74%29.45 "Hg10 mi
7:00 pm81 °FSunny.3 mph70%29.45 "Hg10 mi
6:30 pm81 °FScattered clouds.6 mph70%29.45 "HgN/A
6:00 pm81 °FScattered clouds.8 mph74%29.42 "HgN/A
5:30 pm81 °FScattered clouds.8 mph74%29.42 "HgN/A
5:00 pm81 °FScattered clouds.8 mph74%29.42 "HgN/A
4:30 pm81 °FPartly sunny.8 mph79%29.42 "HgN/A
4:00 pm81 °FPartly sunny.8 mph79%29.42 "HgN/A
3:30 pm79 °FBroken clouds.10 mph84%29.42 "HgN/A
3:00 pm81 °FBroken clouds.10 mph79%29.42 "HgN/A
2:30 pm79 °FBroken clouds.13 mph84%29.42 "HgN/A
2:00 pm79 °FBroken clouds.10 mph89%29.42 "HgN/A
1:30 pm79 °FBroken clouds.10 mph89%29.42 "HgN/A
1:00 pm79 °FBroken clouds.8 mph89%29.42 "HgN/A
12:30 pm77 °FLight rain. Fog.8 mph94%29.42 "Hg3 mi
12:00 pm75 °FLight rain. Fog.8 mph94%29.42 "Hg2 mi
11:30 am77 °FLight rain. Broken clouds.6 mph89%29.42 "Hg4 mi
11:00 am77 °FLight rain. Broken clouds.6 mph89%29.42 "Hg4 mi
10:30 am77 °FLight rain. Broken clouds.8 mph89%29.39 "Hg4 mi
10:00 am77 °FPartly sunny.6 mph89%29.39 "Hg4 mi
9:30 am77 °FFog.6 mph89%29.39 "Hg3 mi
9:00 am75 °FFog.6 mph94%29.39 "Hg3 mi
8:00 am75 °FFog.6 mph89%29.39 "Hg2 mi
7:30 am75 °FFog.10 mph89%29.39 "Hg3 mi
7:00 am75 °FBroken clouds.3 mph89%29.39 "Hg4 mi
6:30 am75 °FLight rain. Broken clouds.3 mph89%29.39 "Hg4 mi
6:00 am75 °FLight rain. Fog.6 mph89%29.39 "Hg2 mi
5:30 am75 °FLight rain. Fog.8 mph89%29.36 "Hg2 mi
5:00 am75 °FLight rain. Fog.10 mph89%29.36 "Hg2 mi
4:30 am75 °FLight rain. Fog.10 mph89%29.36 "Hg2 mi
4:00 am75 °FLight rain. Fog.10 mph89%29.36 "Hg2 mi
3:30 am75 °FLight rain. Fog.10 mph89%29.36 "Hg2 mi
3:00 am73 °FLight rain. Fog.8 mph94%29.36 "Hg2 mi
2:30 am75 °FLight rain. Partly cloudy.8 mph89%29.36 "Hg4 mi
2:00 am75 °FPartly cloudy.3 mph89%29.36 "Hg4 mi
Weather by CustomWeather, © 2021

See weather overview